createdAt,value
2023-08-30T00:00:53.539Z,1004.11
2023-08-30T00:01:53.437Z,1004.14
2023-08-30T00:02:53.483Z,1004.15
2023-08-30T00:03:53.520Z,1004.15
2023-08-30T00:04:53.412Z,1004.08
2023-08-30T00:05:53.412Z,1004.14
2023-08-30T00:06:53.404Z,1004.15
2023-08-30T00:07:53.366Z,1004.10
2023-08-30T00:08:53.383Z,1004.10
2023-08-30T00:09:53.350Z,1004.15
2023-08-30T00:10:53.327Z,1004.13
2023-08-30T00:11:54.014Z,1004.19
2023-08-30T00:12:53.325Z,1004.14
2023-08-30T00:13:53.287Z,1004.16
2023-08-30T00:14:53.274Z,1004.14
2023-08-30T00:15:53.321Z,1004.15
2023-08-30T00:16:53.261Z,1004.12
2023-08-30T00:17:53.276Z,1004.09
2023-08-30T00:18:53.259Z,1004.16
2023-08-30T00:19:53.199Z,1004.10
2023-08-30T00:20:53.216Z,1004.08
2023-08-30T00:21:53.182Z,1004.08
2023-08-30T00:22:53.161Z,1004.06
2023-08-30T00:23:53.173Z,1004.02
2023-08-30T00:24:53.141Z,1004.02
2023-08-30T00:25:53.175Z,1004.06
2023-08-30T00:26:53.154Z,1004.05
2023-08-30T00:27:53.136Z,1004.00
2023-08-30T00:28:53.083Z,1004.08
2023-08-30T00:29:53.094Z,1004.09
2023-08-30T00:30:53.113Z,1004.12
2023-08-30T00:31:53.038Z,1004.09
2023-08-30T00:32:53.100Z,1004.07
2023-08-30T00:33:53.055Z,1004.12
2023-08-30T00:34:53.009Z,1004.09
2023-08-30T00:35:53.699Z,1004.05
2023-08-30T00:36:52.975Z,1004.05
2023-08-30T00:37:52.988Z,1003.99
2023-08-30T00:38:52.976Z,1003.99
2023-08-30T00:39:52.961Z,1004.01
2023-08-30T00:40:52.953Z,1004.02
2023-08-30T00:41:52.917Z,1004.02
2023-08-30T00:42:52.896Z,1004.00
2023-08-30T00:43:52.915Z,1004.02
2023-08-30T00:44:52.905Z,1004.03
2023-08-30T00:45:52.899Z,1004.06
2023-08-30T00:46:52.855Z,1004.02
2023-08-30T00:47:52.882Z,1004.00
2023-08-30T00:48:52.816Z,1003.99
2023-08-30T00:49:52.822Z,1004.00
2023-08-30T00:50:52.816Z,1004.00
2023-08-30T00:51:52.808Z,1003.98
2023-08-30T00:52:52.796Z,1004.00
2023-08-30T00:53:52.746Z,1004.00
2023-08-30T00:54:52.736Z,1004.01
2023-08-30T00:55:52.747Z,1004.01
2023-08-30T00:56:52.716Z,1004.00
2023-08-30T00:57:52.752Z,1004.00
2023-08-30T00:58:52.713Z,1003.99
2023-08-30T00:59:53.361Z,1003.98
2023-08-30T01:00:52.743Z,1004.01
2023-08-30T01:01:52.639Z,1004.02
2023-08-30T01:02:52.695Z,1004.02
2023-08-30T01:03:52.697Z,1004.02
2023-08-30T01:04:52.610Z,1004.02
2023-08-30T01:05:53.573Z,1003.99
2023-08-30T01:06:53.299Z,1003.99
2023-08-30T01:07:52.563Z,1003.98
2023-08-30T01:08:52.604Z,1003.95
2023-08-30T01:09:52.566Z,1003.93
2023-08-30T01:10:52.524Z,1003.89
2023-08-30T01:11:52.542Z,1003.93
2023-08-30T01:12:52.504Z,1003.91
2023-08-30T01:13:52.505Z,1003.91
2023-08-30T01:14:52.498Z,1003.90
2023-08-30T01:15:52.483Z,1003.91
2023-08-30T01:16:52.441Z,1003.85
2023-08-30T01:17:52.512Z,1003.87
2023-08-30T01:18:52.450Z,1003.91
2023-08-30T01:19:52.428Z,1003.88
2023-08-30T01:20:52.420Z,1003.89
2023-08-30T01:21:52.412Z,1003.86
2023-08-30T01:22:52.357Z,1003.88
2023-08-30T01:23:53.337Z,1003.87
2023-08-30T01:24:52.394Z,1003.87
2023-08-30T01:25:52.395Z,1003.83
2023-08-30T01:26:52.406Z,1003.81
2023-08-30T01:27:52.525Z,1003.82
2023-08-30T01:28:52.319Z,1003.77
2023-08-30T01:29:52.262Z,1003.78
2023-08-30T01:30:52.287Z,1003.80
2023-08-30T01:31:52.276Z,1003.77
2023-08-30T01:32:52.263Z,1003.82
2023-08-30T01:33:52.417Z,1003.80
2023-08-30T01:34:52.200Z,1003.80
2023-08-30T01:35:52.217Z,1003.83
2023-08-30T01:36:52.175Z,1003.84
2023-08-30T01:37:52.188Z,1003.81
2023-08-30T01:38:52.183Z,1003.80
2023-08-30T01:39:52.153Z,1003.82
2023-08-30T01:40:52.150Z,1003.85
2023-08-30T01:41:52.102Z,1003.84
2023-08-30T01:42:52.096Z,1003.83
2023-08-30T01:43:52.107Z,1003.86
2023-08-30T01:44:52.069Z,1003.82
2023-08-30T01:45:52.129Z,1003.82
2023-08-30T01:46:52.067Z,1003.80
2023-08-30T01:47:52.096Z,1003.83
2023-08-30T01:48:52.021Z,1003.81
2023-08-30T01:49:52.028Z,1003.84
2023-08-30T01:50:52.014Z,1003.83
2023-08-30T01:51:52.000Z,1003.84
2023-08-30T01:52:51.984Z,1003.87
2023-08-30T01:53:51.940Z,1003.88
2023-08-30T01:54:52.613Z,1003.87
2023-08-30T01:55:51.938Z,1003.84
2023-08-30T01:56:51.903Z,1003.85
2023-08-30T01:57:51.929Z,1003.89
2023-08-30T01:58:51.897Z,1003.81
2023-08-30T01:59:51.853Z,1003.83
2023-08-30T02:00:51.871Z,1003.84
2023-08-30T02:01:51.864Z,1003.83
2023-08-30T02:02:51.857Z,1003.85
2023-08-30T02:03:51.853Z,1003.83
2023-08-30T02:04:51.836Z,1003.83
2023-08-30T02:05:51.778Z,1003.79
2023-08-30T02:06:51.757Z,1003.76
2023-08-30T02:07:51.778Z,1003.76
2023-08-30T02:08:51.798Z,1003.80
2023-08-30T02:09:51.779Z,1003.79
2023-08-30T02:10:51.730Z,1003.75
2023-08-30T02:11:51.702Z,1003.75
2023-08-30T02:12:51.707Z,1003.75
2023-08-30T02:13:51.668Z,1003.76
2023-08-30T02:14:51.646Z,1003.76
2023-08-30T02:15:52.652Z,1003.77
2023-08-30T02:16:51.616Z,1003.83
2023-08-30T02:17:51.649Z,1003.81
2023-08-30T02:18:51.639Z,1003.75
2023-08-30T02:19:51.580Z,1003.71
2023-08-30T02:20:51.565Z,1003.76
2023-08-30T02:21:51.612Z,1003.70
2023-08-30T02:22:51.569Z,1003.67
2023-08-30T02:23:51.528Z,1003.71
2023-08-30T02:24:51.540Z,1003.67
2023-08-30T02:25:51.497Z,1003.67
2023-08-30T02:26:51.479Z,1003.67
2023-08-30T02:27:51.529Z,1003.67
2023-08-30T02:28:51.452Z,1003.61
2023-08-30T02:29:51.481Z,1003.67
2023-08-30T02:30:51.461Z,1003.65
2023-08-30T02:31:51.445Z,1003.64
2023-08-30T02:32:51.472Z,1003.65
2023-08-30T02:33:51.413Z,1003.64
2023-08-30T02:34:51.374Z,1003.67
2023-08-30T02:35:51.397Z,1003.59
2023-08-30T02:36:51.367Z,1003.60
2023-08-30T02:37:51.338Z,1003.65
2023-08-30T02:38:51.314Z,1003.66
2023-08-30T02:39:51.369Z,1003.65
2023-08-30T02:40:51.298Z,1003.60
2023-08-30T02:41:51.302Z,1003.59
2023-08-30T02:42:51.300Z,1003.64
2023-08-30T02:43:51.260Z,1003.62
2023-08-30T02:44:51.270Z,1003.63
2023-08-30T02:45:51.279Z,1003.64
2023-08-30T02:46:51.202Z,1003.61
2023-08-30T02:47:51.271Z,1003.68
2023-08-30T02:48:51.209Z,1003.67
2023-08-30T02:49:51.199Z,1003.66
2023-08-30T02:50:51.178Z,1003.65
2023-08-30T02:51:51.180Z,1003.65
2023-08-30T02:52:51.125Z,1003.65
2023-08-30T02:53:51.147Z,1003.61
2023-08-30T02:54:51.120Z,1003.58
2023-08-30T02:55:51.128Z,1003.56
2023-08-30T02:56:51.098Z,1003.54
2023-08-30T02:57:51.792Z,1003.62
2023-08-30T02:58:51.049Z,1003.60
2023-08-30T02:59:51.748Z,1003.56
2023-08-30T03:00:51.055Z,1003.56
2023-08-30T03:01:51.033Z,1003.57
2023-08-30T03:02:51.118Z,1003.57
2023-08-30T03:03:51.025Z,1003.61
2023-08-30T03:04:50.981Z,1003.54
2023-08-30T03:05:51.130Z,1003.58
2023-08-30T03:06:50.935Z,1003.58
2023-08-30T03:07:50.945Z,1003.50
2023-08-30T03:08:51.858Z,1003.56
2023-08-30T03:09:50.955Z,1003.53
2023-08-30T03:10:50.918Z,1003.51
2023-08-30T03:11:50.871Z,1003.52
2023-08-30T03:12:50.881Z,1003.51
2023-08-30T03:13:50.836Z,1003.49
2023-08-30T03:14:50.822Z,1003.54
2023-08-30T03:15:50.919Z,1003.51
2023-08-30T03:16:50.798Z,1003.51
2023-08-30T03:17:50.873Z,1003.51
2023-08-30T03:18:50.802Z,1003.48
2023-08-30T03:19:50.756Z,1003.53
2023-08-30T03:20:50.774Z,1003.54
2023-08-30T03:21:51.741Z,1003.55
2023-08-30T03:22:51.440Z,1003.53
2023-08-30T03:23:50.745Z,1003.57
2023-08-30T03:24:50.712Z,1003.60
2023-08-30T03:25:50.674Z,1003.54
2023-08-30T03:26:50.664Z,1003.54
2023-08-30T03:27:50.722Z,1003.55
2023-08-30T03:28:50.628Z,1003.57
2023-08-30T03:29:50.644Z,1003.55
2023-08-30T03:30:50.662Z,1003.55
2023-08-30T03:31:50.588Z,1003.56
2023-08-30T03:32:50.652Z,1003.54
2023-08-30T03:33:50.603Z,1003.53
2023-08-30T03:34:50.559Z,1003.48
2023-08-30T03:35:50.560Z,1003.50
2023-08-30T03:36:50.523Z,1003.52
2023-08-30T03:37:50.534Z,1003.50
2023-08-30T03:38:50.523Z,1003.54
2023-08-30T03:39:50.518Z,1003.56
2023-08-30T03:40:50.463Z,1003.54
2023-08-30T03:41:50.489Z,1003.56
2023-08-30T03:42:50.471Z,1003.58
2023-08-30T03:43:50.425Z,1003.56
2023-08-30T03:44:50.431Z,1003.60
2023-08-30T03:45:50.431Z,1003.53
2023-08-30T03:46:50.424Z,1003.53
2023-08-30T03:47:50.409Z,1003.55
2023-08-30T03:48:50.360Z,1003.55
2023-08-30T03:49:50.378Z,1003.57
2023-08-30T03:50:50.356Z,1003.54
2023-08-30T03:51:50.388Z,1003.56
2023-08-30T03:52:50.332Z,1003.53
2023-08-30T03:53:50.290Z,1003.56
2023-08-30T03:54:50.268Z,1003.55
2023-08-30T03:55:50.288Z,1003.54
2023-08-30T03:56:50.269Z,1003.49
2023-08-30T03:57:50.265Z,1003.47
2023-08-30T03:58:50.217Z,1003.46
2023-08-30T03:59:51.191Z,1003.44
2023-08-30T04:00:50.259Z,1003.42
2023-08-30T04:01:50.205Z,1003.39
2023-08-30T04:02:50.234Z,1003.36
2023-08-30T04:03:50.203Z,1003.33
2023-08-30T04:04:50.158Z,1003.33
2023-08-30T04:05:50.123Z,1003.34
2023-08-30T04:06:50.117Z,1003.33
2023-08-30T04:07:50.124Z,1003.40
2023-08-30T04:08:50.076Z,1003.42
2023-08-30T04:09:50.131Z,1003.38
2023-08-30T04:10:50.076Z,1003.40
2023-08-30T04:11:50.038Z,1003.40
2023-08-30T04:12:50.047Z,1003.46
2023-08-30T04:13:50.009Z,1003.43
2023-08-30T04:14:50.008Z,1003.43
2023-08-30T04:15:50.071Z,1003.42
2023-08-30T04:16:50.034Z,1003.36
2023-08-30T04:17:50.003Z,1003.42
2023-08-30T04:18:49.969Z,1003.40
2023-08-30T04:19:50.620Z,1003.42
2023-08-30T04:20:49.941Z,1003.43
2023-08-30T04:21:49.934Z,1003.41
2023-08-30T04:22:49.881Z,1003.39
2023-08-30T04:23:49.907Z,1003.38
2023-08-30T04:24:49.862Z,1003.35
2023-08-30T04:25:49.876Z,1003.36
2023-08-30T04:26:49.854Z,1003.31
2023-08-30T04:27:49.862Z,1003.33
2023-08-30T04:28:49.803Z,1003.32
2023-08-30T04:29:49.815Z,1003.33
2023-08-30T04:30:49.827Z,1003.32
2023-08-30T04:31:49.769Z,1003.35
2023-08-30T04:32:49.818Z,1003.32
2023-08-30T04:33:49.776Z,1003.36
2023-08-30T04:34:50.677Z,1003.35
2023-08-30T04:35:49.735Z,1003.30
2023-08-30T04:36:49.698Z,1003.30
2023-08-30T04:37:49.704Z,1003.30
2023-08-30T04:39:01.774Z,1003.32
2023-08-30T04:39:50.703Z,1003.27
2023-08-30T04:40:49.712Z,1003.26
2023-08-30T04:41:49.630Z,1003.29
2023-08-30T04:42:49.601Z,1003.28
2023-08-30T04:43:49.616Z,1003.29
2023-08-30T04:44:49.604Z,1003.32
2023-08-30T04:45:49.611Z,1003.33
2023-08-30T04:46:49.551Z,1003.29
2023-08-30T04:47:49.604Z,1003.31
2023-08-30T04:48:49.551Z,1003.31
2023-08-30T04:49:49.544Z,1003.35
2023-08-30T04:50:49.520Z,1003.34
2023-08-30T04:51:49.519Z,1003.36
2023-08-30T04:52:49.497Z,1003.29
2023-08-30T04:53:49.470Z,1003.27
2023-08-30T04:54:49.436Z,1003.29
2023-08-30T04:55:49.460Z,1003.27
2023-08-30T04:56:49.412Z,1003.25
2023-08-30T04:57:49.461Z,1003.26
2023-08-30T04:58:49.409Z,1003.27
2023-08-30T04:59:49.381Z,1003.24
2023-08-30T05:00:49.402Z,1003.22
2023-08-30T05:01:49.377Z,1003.25
2023-08-30T05:02:49.433Z,1003.25
2023-08-30T05:03:49.428Z,1003.25
2023-08-30T05:04:49.332Z,1003.23
2023-08-30T05:05:49.298Z,1003.22
2023-08-30T05:06:49.275Z,1003.23
2023-08-30T05:07:49.294Z,1003.18
2023-08-30T05:08:49.259Z,1003.21
2023-08-30T05:09:50.256Z,1003.16
2023-08-30T05:10:49.251Z,1003.14
2023-08-30T05:11:49.250Z,1003.15
2023-08-30T05:12:49.239Z,1003.12
2023-08-30T05:13:49.192Z,1003.12
2023-08-30T05:14:50.129Z,1003.13
2023-08-30T05:15:49.229Z,1003.12
2023-08-30T05:16:51.055Z,1003.11
2023-08-30T05:17:49.263Z,1003.16
2023-08-30T05:18:49.155Z,1003.12
2023-08-30T05:19:49.109Z,1003.08
2023-08-30T05:20:49.112Z,1003.10
2023-08-30T05:21:49.109Z,1003.13
2023-08-30T05:22:49.062Z,1003.05
2023-08-30T05:23:49.085Z,1003.06
2023-08-30T05:24:49.031Z,1003.02
2023-08-30T05:25:49.057Z,1003.10
2023-08-30T05:26:49.036Z,1003.11
2023-08-30T05:27:49.050Z,1003.08
2023-08-30T05:28:49.006Z,1003.08
2023-08-30T05:29:48.966Z,1003.07
2023-08-30T05:30:48.991Z,1003.01
2023-08-30T05:31:48.969Z,1003.02
2023-08-30T05:32:48.999Z,1003.07
2023-08-30T05:33:48.945Z,1003.05
2023-08-30T05:34:48.893Z,1003.04
2023-08-30T05:35:48.928Z,1003.03
2023-08-30T05:36:48.868Z,1003.04
2023-08-30T05:37:48.888Z,1003.00
2023-08-30T05:38:48.866Z,1003.01
2023-08-30T05:39:48.877Z,1003.05
2023-08-30T05:40:48.840Z,1003.05
2023-08-30T05:41:48.807Z,1003.04
2023-08-30T05:42:48.780Z,1002.99
2023-08-30T05:43:48.799Z,1002.99
2023-08-30T05:44:48.775Z,1002.95
2023-08-30T05:45:48.904Z,1002.97
2023-08-30T05:46:48.754Z,1002.97
2023-08-30T05:47:48.754Z,1003.01
2023-08-30T05:48:49.386Z,1002.97
2023-08-30T05:49:48.726Z,1002.98
2023-08-30T05:50:48.698Z,1002.95
2023-08-30T05:51:48.696Z,1002.98
2023-08-30T05:52:48.669Z,1003.00
2023-08-30T05:53:48.646Z,1003.03
2023-08-30T05:54:48.614Z,1002.98
2023-08-30T05:55:48.658Z,1002.97
2023-08-30T05:56:48.595Z,1003.00
2023-08-30T05:57:48.626Z,1002.99
2023-08-30T05:58:48.587Z,1002.97
2023-08-30T05:59:48.557Z,1003.00
2023-08-30T06:00:48.570Z,1002.90
2023-08-30T06:01:48.583Z,1002.89
2023-08-30T06:02:48.523Z,1002.92
2023-08-30T06:03:48.601Z,1002.88
2023-08-30T06:04:48.510Z,1002.87
2023-08-30T06:05:48.475Z,1002.85
2023-08-30T06:06:48.453Z,1002.82
2023-08-30T06:07:48.470Z,1002.82
2023-08-30T06:08:48.466Z,1002.84
2023-08-30T06:09:48.459Z,1002.85
2023-08-30T06:10:48.430Z,1002.84
2023-08-30T06:11:48.389Z,1002.84
2023-08-30T06:12:48.399Z,1002.83
2023-08-30T06:13:48.360Z,1002.82
2023-08-30T06:14:48.352Z,1002.81
2023-08-30T06:15:48.440Z,1002.85
2023-08-30T06:16:48.317Z,1002.84
2023-08-30T06:17:48.370Z,1002.83
2023-08-30T06:18:48.312Z,1002.82
2023-08-30T06:19:48.280Z,1002.83
2023-08-30T06:20:48.296Z,1002.84
2023-08-30T06:21:49.199Z,1002.83
2023-08-30T06:22:48.242Z,1002.85
2023-08-30T06:23:48.262Z,1002.81
2023-08-30T06:24:48.210Z,1002.80
2023-08-30T06:25:49.179Z,1002.79
2023-08-30T06:26:48.209Z,1002.81
2023-08-30T06:27:48.393Z,1002.81
2023-08-30T06:28:58.621Z,1002.80
2023-08-30T06:29:49.129Z,1002.77
2023-08-30T06:30:48.152Z,1002.76
2023-08-30T06:31:48.168Z,1002.77
2023-08-30T06:32:48.124Z,1002.74
2023-08-30T06:33:48.131Z,1002.72
2023-08-30T06:34:48.101Z,1002.74
2023-08-30T06:35:48.055Z,1002.77
2023-08-30T06:36:48.040Z,1002.78
2023-08-30T06:37:48.056Z,1002.81
2023-08-30T06:38:48.040Z,1002.81
2023-08-30T06:39:48.039Z,1002.75
2023-08-30T06:40:48.015Z,1002.68
2023-08-30T06:41:47.976Z,1002.70
2023-08-30T06:42:47.959Z,1002.73
2023-08-30T06:43:47.966Z,1002.70
2023-08-30T06:44:48.900Z,1002.69
2023-08-30T06:45:48.036Z,1002.66
2023-08-30T06:46:47.935Z,1002.65
2023-08-30T06:47:47.914Z,1002.65
2023-08-30T06:48:47.907Z,1002.65
2023-08-30T06:49:47.861Z,1002.64
2023-08-30T06:50:47.849Z,1002.60
2023-08-30T06:51:47.881Z,1002.62
2023-08-30T06:52:47.855Z,1002.65
2023-08-30T06:53:47.805Z,1002.62
2023-08-30T06:54:47.803Z,1002.61
2023-08-30T06:55:47.805Z,1002.62
2023-08-30T06:56:48.733Z,1002.65
2023-08-30T06:57:47.815Z,1002.63
2023-08-30T06:58:47.771Z,1002.67
2023-08-30T06:59:47.725Z,1002.65
2023-08-30T07:00:48.455Z,1002.69
2023-08-30T07:01:47.726Z,1002.68
2023-08-30T07:02:47.735Z,1002.72
2023-08-30T07:03:47.750Z,1002.67
2023-08-30T07:04:47.669Z,1002.68
2023-08-30T07:05:47.673Z,1002.66
2023-08-30T07:06:47.664Z,1002.68
2023-08-30T07:07:47.619Z,1002.66
2023-08-30T07:09:02.284Z,1002.71
2023-08-30T07:09:47.665Z,1002.67
2023-08-30T07:10:47.647Z,1002.67
2023-08-30T07:11:47.563Z,1002.68
2023-08-30T07:12:47.581Z,1002.66
2023-08-30T07:13:47.535Z,1002.55
2023-08-30T07:14:47.529Z,1002.55
2023-08-30T07:15:47.585Z,1002.51
2023-08-30T07:16:47.501Z,1002.51
2023-08-30T07:17:53.910Z,1002.49
2023-08-30T07:18:49.245Z,1002.53
2023-08-30T07:19:47.461Z,1002.55
2023-08-30T07:20:47.472Z,1002.52
2023-08-30T07:21:47.451Z,1002.48
2023-08-30T07:22:47.442Z,1002.52
2023-08-30T07:23:47.427Z,1002.47
2023-08-30T07:24:47.394Z,1002.43
2023-08-30T07:25:47.404Z,1002.46
2023-08-30T07:26:48.095Z,1002.47
2023-08-30T07:27:47.384Z,1002.46
2023-08-30T07:28:47.374Z,1002.47
2023-08-30T07:29:47.320Z,1002.49
2023-08-30T07:30:47.309Z,1002.48
2023-08-30T07:31:47.321Z,1002.47
2023-08-30T07:32:47.295Z,1002.45
2023-08-30T07:33:47.333Z,1002.48
2023-08-30T07:34:47.297Z,1002.46
2023-08-30T07:35:47.246Z,1002.47
2023-08-30T07:36:48.324Z,1002.47
2023-08-30T07:37:47.208Z,1002.42
2023-08-30T07:38:47.199Z,1002.45
2023-08-30T07:39:47.242Z,1002.44
2023-08-30T07:40:47.328Z,1002.45
2023-08-30T07:41:47.156Z,1002.45
2023-08-30T07:42:47.148Z,1002.49
2023-08-30T07:43:47.236Z,1002.52
2023-08-30T07:44:47.123Z,1002.47
2023-08-30T07:45:47.160Z,1002.49
2023-08-30T07:46:47.116Z,1002.50
2023-08-30T07:47:47.092Z,1002.48
2023-08-30T07:48:48.058Z,1002.49
2023-08-30T07:49:47.050Z,1002.46
2023-08-30T07:50:47.033Z,1002.48
2023-08-30T07:51:47.083Z,1002.50
2023-08-30T07:52:47.006Z,1002.48
2023-08-30T07:53:47.018Z,1002.53
2023-08-30T07:54:47.024Z,1002.52
2023-08-30T07:55:46.964Z,1002.51
2023-08-30T07:56:46.954Z,1002.44
2023-08-30T07:57:46.994Z,1002.49
2023-08-30T07:58:46.968Z,1002.42
2023-08-30T07:59:46.922Z,1002.41
2023-08-30T08:00:46.940Z,1002.44
2023-08-30T08:01:46.884Z,1002.36
2023-08-30T08:02:46.913Z,1002.38
2023-08-30T08:04:04.339Z,1002.41
2023-08-30T08:04:47.846Z,1002.35
2023-08-30T08:05:46.863Z,1002.37
2023-08-30T08:06:56.077Z,1002.37
2023-08-30T08:07:47.837Z,1002.37
2023-08-30T08:08:46.818Z,1002.37
2023-08-30T08:09:46.808Z,1002.39
2023-08-30T08:10:47.721Z,1002.36
2023-08-30T08:11:46.794Z,1002.38
2023-08-30T08:12:46.889Z,1002.42
2023-08-30T08:13:46.861Z,1002.42
2023-08-30T08:14:46.714Z,1002.45
2023-08-30T08:15:46.804Z,1002.39
2023-08-30T08:16:46.682Z,1002.40
2023-08-30T08:17:46.753Z,1002.44
2023-08-30T08:18:46.708Z,1002.42
2023-08-30T08:19:46.652Z,1002.42
2023-08-30T08:20:46.684Z,1002.42
2023-08-30T08:21:46.671Z,1002.43
2023-08-30T08:22:46.606Z,1002.42
2023-08-30T08:23:46.837Z,1002.38
2023-08-30T08:24:46.577Z,1002.36
2023-08-30T08:25:46.636Z,1002.37
2023-08-30T08:26:46.576Z,1002.38
2023-08-30T08:27:46.564Z,1002.37
2023-08-30T08:28:46.556Z,1002.37
2023-08-30T08:29:46.506Z,1002.36
2023-08-30T08:30:46.515Z,1002.37
2023-08-30T08:31:47.465Z,1002.38
2023-08-30T08:32:46.528Z,1002.35
2023-08-30T08:33:46.522Z,1002.34
2023-08-30T08:34:46.487Z,1002.31
2023-08-30T08:35:47.380Z,1002.32
2023-08-30T08:36:46.441Z,1002.31
2023-08-30T08:37:47.092Z,1002.29
2023-08-30T08:38:48.129Z,1002.31
2023-08-30T08:39:46.424Z,1002.28
2023-08-30T08:40:46.379Z,1002.26
2023-08-30T08:41:46.401Z,1002.28
2023-08-30T08:42:46.352Z,1002.31
2023-08-30T08:43:46.307Z,1002.27
2023-08-30T08:44:46.312Z,1002.23
2023-08-30T08:45:46.360Z,1002.27
2023-08-30T08:46:47.297Z,1002.29
2023-08-30T08:47:46.271Z,1002.25
2023-08-30T08:48:46.280Z,1002.28
2023-08-30T08:49:46.231Z,1002.25
2023-08-30T08:50:47.226Z,1002.26
2023-08-30T08:51:46.500Z,1002.26
2023-08-30T08:53:46.198Z,1002.23
2023-08-30T08:54:46.193Z,1002.25
2023-08-30T08:55:46.144Z,1002.22
2023-08-30T08:56:46.163Z,1002.20
2023-08-30T08:57:47.359Z,1002.16
2023-08-30T08:58:46.111Z,1002.16
2023-08-30T08:59:46.117Z,1002.16
2023-08-30T09:00:46.135Z,1002.20
2023-08-30T09:01:46.818Z,1002.14
2023-08-30T09:02:46.055Z,1002.17
2023-08-30T09:03:46.197Z,1002.18
2023-08-30T09:04:46.035Z,1002.19
2023-08-30T09:05:46.044Z,1002.15
2023-08-30T09:06:46.035Z,1002.11
2023-08-30T09:07:46.041Z,1002.15
2023-08-30T09:08:46.003Z,1002.11
2023-08-30T09:09:45.992Z,1002.10
2023-08-30T09:10:45.949Z,1002.12
2023-08-30T09:11:51.321Z,1002.13
2023-08-30T09:12:46.927Z,1002.07
2023-08-30T09:13:45.948Z,1002.08
2023-08-30T09:14:45.922Z,1002.07
2023-08-30T09:15:45.912Z,1002.11
2023-08-30T09:16:45.913Z,1002.11
2023-08-30T09:17:45.903Z,1002.07
2023-08-30T09:18:53.353Z,1002.10
2023-08-30T09:19:46.824Z,1002.04
2023-08-30T09:20:46.568Z,1002.05
2023-08-30T09:21:45.866Z,1002.07
2023-08-30T09:22:45.805Z,1002.01
2023-08-30T09:23:45.800Z,1002.05
2023-08-30T09:24:45.772Z,1002.05
2023-08-30T09:25:45.776Z,1002.05
2023-08-30T09:26:45.761Z,1002.05
2023-08-30T09:27:45.744Z,1002.04
2023-08-30T09:28:45.739Z,1002.07
2023-08-30T09:29:47.058Z,1002.06
2023-08-30T09:30:45.735Z,1002.09
2023-08-30T09:31:45.758Z,1002.03
2023-08-30T09:32:45.689Z,1001.97
2023-08-30T09:33:45.694Z,1001.97
2023-08-30T09:34:45.659Z,1001.97
2023-08-30T09:35:45.625Z,1001.95
2023-08-30T09:36:45.632Z,1002.01
2023-08-30T09:37:45.585Z,1001.98
2023-08-30T09:38:45.578Z,1002.01
2023-08-30T09:39:45.618Z,1002.04
2023-08-30T09:40:45.550Z,1002.01
2023-08-30T09:41:45.559Z,1001.98
2023-08-30T09:42:50.886Z,1002.02
2023-08-30T09:43:46.557Z,1002.02
2023-08-30T09:44:45.633Z,1001.97
2023-08-30T09:45:45.510Z,1001.95
2023-08-30T09:46:51.551Z,1001.94
2023-08-30T09:47:46.542Z,1001.96
2023-08-30T09:48:45.470Z,1001.93
2023-08-30T09:49:45.429Z,1001.95
2023-08-30T09:50:45.419Z,1001.94
2023-08-30T09:51:45.487Z,1001.90
2023-08-30T09:52:45.384Z,1001.86
2023-08-30T09:54:00.776Z,1001.88
2023-08-30T09:54:46.387Z,1001.84
2023-08-30T09:55:45.341Z,1001.82
2023-08-30T09:56:45.358Z,1001.88
2023-08-30T09:57:45.354Z,1001.85
2023-08-30T09:58:45.304Z,1001.84
2023-08-30T09:59:45.314Z,1001.84
2023-08-30T10:00:45.276Z,1001.79
2023-08-30T10:01:45.300Z,1001.80
2023-08-30T10:03:01.323Z,1001.80
2023-08-30T10:03:46.320Z,1001.81
2023-08-30T10:04:45.463Z,1001.83
2023-08-30T10:05:45.232Z,1001.81
2023-08-30T10:06:45.219Z,1001.80
2023-08-30T10:07:45.175Z,1001.80
2023-08-30T10:08:45.195Z,1001.84
2023-08-30T10:09:59.046Z,1001.82
2023-08-30T10:10:46.140Z,1001.84
2023-08-30T10:11:45.148Z,1001.79
2023-08-30T10:12:50.556Z,1001.77
2023-08-30T10:13:46.124Z,1001.80
2023-08-30T10:14:45.118Z,1001.81
2023-08-30T10:15:45.125Z,1001.84
2023-08-30T10:16:45.207Z,1001.77
2023-08-30T10:17:45.077Z,1001.79
2023-08-30T10:18:52.316Z,1001.75
2023-08-30T10:19:46.054Z,1001.70
2023-08-30T10:20:45.045Z,1001.73
2023-08-30T10:21:45.023Z,1001.80
2023-08-30T10:22:44.975Z,1001.78
2023-08-30T10:23:44.989Z,1001.77
2023-08-30T10:25:02.889Z,1001.71
2023-08-30T10:25:45.970Z,1001.72
2023-08-30T10:26:44.955Z,1001.69
2023-08-30T10:27:44.929Z,1001.66
2023-08-30T10:28:44.925Z,1001.68
2023-08-30T10:29:44.877Z,1001.67
2023-08-30T10:30:44.864Z,1001.62
2023-08-30T10:31:44.884Z,1001.65
2023-08-30T10:32:44.895Z,1001.66
2023-08-30T10:33:44.876Z,1001.63
2023-08-30T10:34:44.841Z,1001.65
2023-08-30T10:35:44.811Z,1001.65
2023-08-30T10:36:44.780Z,1001.63
2023-08-30T10:37:44.822Z,1001.64
2023-08-30T10:38:44.783Z,1001.59
2023-08-30T10:39:44.775Z,1001.61
2023-08-30T10:40:44.755Z,1001.64
2023-08-30T10:41:44.716Z,1001.62
2023-08-30T10:42:44.702Z,1001.64
2023-08-30T10:43:44.714Z,1001.66
2023-08-30T10:45:44.762Z,1001.69
2023-08-30T10:46:44.794Z,1001.63
2023-08-30T10:47:44.731Z,1001.63
2023-08-30T10:48:44.649Z,1001.63
2023-08-30T10:49:44.624Z,1001.65
2023-08-30T10:50:44.594Z,1001.66
2023-08-30T10:51:44.647Z,1001.65
2023-08-30T10:52:44.602Z,1001.66
2023-08-30T10:53:44.603Z,1001.66
2023-08-30T10:54:44.538Z,1001.65
2023-08-30T10:55:44.566Z,1001.63
2023-08-30T10:56:44.510Z,1001.58
2023-08-30T10:57:44.636Z,1001.61
2023-08-30T10:58:44.517Z,1001.56
2023-08-30T10:59:44.474Z,1001.57
2023-08-30T11:00:44.484Z,1001.50
2023-08-30T11:01:45.705Z,1001.46
2023-08-30T11:02:44.455Z,1001.48
2023-08-30T11:03:44.474Z,1001.41
2023-08-30T11:04:44.435Z,1001.37
2023-08-30T11:05:44.421Z,1001.35
2023-08-30T11:06:44.431Z,1001.38
2023-08-30T11:07:44.364Z,1001.31
2023-08-30T11:08:44.347Z,1001.28
2023-08-30T11:09:44.407Z,1001.31
2023-08-30T11:10:44.345Z,1001.31
2023-08-30T11:11:44.316Z,1001.33
2023-08-30T11:12:45.295Z,1001.35
2023-08-30T11:13:44.283Z,1001.31
2023-08-30T11:14:44.265Z,1001.32
2023-08-30T11:15:44.350Z,1001.26
2023-08-30T11:16:44.241Z,1001.28
2023-08-30T11:17:44.284Z,1001.30
2023-08-30T11:18:44.236Z,1001.31
2023-08-30T11:19:44.204Z,1001.29
2023-08-30T11:20:44.211Z,1001.32
2023-08-30T11:21:44.210Z,1001.25
2023-08-30T11:22:44.184Z,1001.22
2023-08-30T11:23:44.176Z,1001.24
2023-08-30T11:24:44.154Z,1001.22
2023-08-30T11:25:44.134Z,1001.19
2023-08-30T11:26:44.109Z,1001.16
2023-08-30T11:27:44.333Z,1001.18
2023-08-30T11:28:44.105Z,1001.17
2023-08-30T11:29:44.112Z,1001.11
2023-08-30T11:30:44.090Z,1001.09
2023-08-30T11:31:44.100Z,1001.06
2023-08-30T11:32:44.513Z,1001.07
2023-08-30T11:33:44.069Z,1001.01
2023-08-30T11:34:43.996Z,1001.02
2023-08-30T11:35:44.011Z,1000.99
2023-08-30T11:36:43.974Z,1001.01
2023-08-30T11:37:43.994Z,1000.99
2023-08-30T11:38:43.966Z,1001.03
2023-08-30T11:39:43.997Z,1001.05
2023-08-30T11:40:43.940Z,1001.03
2023-08-30T11:41:43.968Z,1001.03
2023-08-30T11:42:43.887Z,1001.02
2023-08-30T11:43:43.903Z,1001.03
2023-08-30T11:44:43.873Z,1001.04
2023-08-30T11:45:43.943Z,1001.00
2023-08-30T11:46:43.863Z,1001.00
2023-08-30T11:47:44.719Z,1000.97
2023-08-30T11:48:43.834Z,1000.93
2023-08-30T11:49:43.792Z,1000.92
2023-08-30T11:50:48.817Z,1000.89
2023-08-30T11:51:44.824Z,1000.90
2023-08-30T11:52:43.757Z,1000.88
2023-08-30T11:53:43.812Z,1000.85
2023-08-30T11:54:43.752Z,1000.85
2023-08-30T11:55:43.715Z,1000.90
2023-08-30T11:56:43.693Z,1000.89
2023-08-30T11:57:43.747Z,1000.85
2023-08-30T11:58:43.694Z,1000.82
2023-08-30T11:59:44.604Z,1000.80
2023-08-30T12:00:43.666Z,1000.80
2023-08-30T12:01:44.384Z,1000.83
2023-08-30T12:02:43.623Z,1000.79
2023-08-30T12:03:43.718Z,1000.80
2023-08-30T12:04:43.602Z,1000.81
2023-08-30T12:05:43.611Z,1000.76
2023-08-30T12:06:43.590Z,1000.77
2023-08-30T12:07:43.549Z,1000.78